createdAt,value
2022-12-07T00:00:06.333Z,9.59
2022-12-07T00:02:52.043Z,9.47
2022-12-07T00:05:36.213Z,9.60
2022-12-07T00:08:20.223Z,9.48
2022-12-07T00:11:05.340Z,9.69
2022-12-07T00:13:53.422Z,9.58
2022-12-07T00:16:38.109Z,9.75
2022-12-07T00:19:23.570Z,9.89
2022-12-07T00:22:07.563Z,9.87
2022-12-07T00:24:51.527Z,9.96
2022-12-07T00:27:35.253Z,9.99
2022-12-07T00:30:19.176Z,10.10
2022-12-07T00:33:02.900Z,10.20
2022-12-07T00:35:48.006Z,10.20
2022-12-07T00:38:33.491Z,10.01
2022-12-07T00:41:19.236Z,9.96
2022-12-07T00:44:03.017Z,9.82
2022-12-07T00:46:47.530Z,10.17
2022-12-07T00:49:31.328Z,9.98
2022-12-07T00:52:16.808Z,10.07
2022-12-07T00:55:00.708Z,10.13
2022-12-07T00:57:44.666Z,10.09
2022-12-07T01:00:28.601Z,9.94
2022-12-07T01:03:14.796Z,10.05
2022-12-07T01:05:59.534Z,10.26
2022-12-07T01:08:45.175Z,10.05
2022-12-07T01:11:31.659Z,10.37
2022-12-07T01:14:15.602Z,10.15
2022-12-07T01:16:59.696Z,10.16
2022-12-07T01:19:44.011Z,10.34
2022-12-07T01:22:28.306Z,10.20
2022-12-07T01:25:14.587Z,10.18
2022-12-07T01:27:58.578Z,10.31
2022-12-07T01:30:42.571Z,10.22
2022-12-07T01:33:26.753Z,10.22
2022-12-07T01:36:16.411Z,9.90
2022-12-07T01:39:02.367Z,10.19
2022-12-07T01:41:47.826Z,10.12
2022-12-07T01:44:33.172Z,9.66
2022-12-07T01:47:17.264Z,9.78
2022-12-07T01:50:01.454Z,10.09
2022-12-07T01:52:51.081Z,10.17
2022-12-07T01:55:36.492Z,10.01
2022-12-07T01:58:23.194Z,10.35
2022-12-07T02:01:07.618Z,10.22
2022-12-07T02:03:51.914Z,10.49
2022-12-07T02:06:39.630Z,10.31
2022-12-07T02:09:23.780Z,10.35
2022-12-07T02:12:08.013Z,10.36
2022-12-07T02:14:54.521Z,10.52
2022-12-07T02:17:47.943Z,10.36
2022-12-07T02:20:35.821Z,10.51
2022-12-07T02:24:03.616Z,10.49
2022-12-07T02:27:10.750Z,10.48
2022-12-07T02:30:03.371Z,10.38
2022-12-07T02:32:57.721Z,10.38
2022-12-07T02:35:46.337Z,10.69
2022-12-07T02:38:37.169Z,10.71
2022-12-07T02:41:26.500Z,10.65
2022-12-07T02:44:15.287Z,10.72
2022-12-07T02:47:20.783Z,10.71
2022-12-07T02:50:06.279Z,10.71
2022-12-07T02:52:50.318Z,10.47
2022-12-07T02:55:44.274Z,10.28
2022-12-07T02:58:40.173Z,10.24
2022-12-07T03:01:33.005Z,10.13
2022-12-07T03:04:33.081Z,10.07
2022-12-07T03:07:27.049Z,10.39
2022-12-07T03:10:17.012Z,10.43
2022-12-07T03:13:07.361Z,10.44
2022-12-07T03:16:00.363Z,10.45
2022-12-07T03:18:48.933Z,10.47
2022-12-07T03:21:37.263Z,10.51
2022-12-07T03:24:24.267Z,10.49
2022-12-07T03:27:14.199Z,10.60
2022-12-07T03:30:04.349Z,10.57
2022-12-07T03:32:53.003Z,10.56
2022-12-07T03:35:42.311Z,10.54
2022-12-07T03:38:33.862Z,10.33
2022-12-07T03:41:24.336Z,10.33
2022-12-07T03:44:09.449Z,10.21
2022-12-07T03:47:04.282Z,10.24
2022-12-07T03:49:53.327Z,10.07
2022-12-07T03:52:43.312Z,10.15
2022-12-07T03:55:32.029Z,10.02
2022-12-07T03:58:19.753Z,9.96
2022-12-07T04:01:03.756Z,10.13
2022-12-07T04:03:47.842Z,10.09
2022-12-07T04:06:31.645Z,10.02
2022-12-07T04:09:16.177Z,9.94
2022-12-07T04:12:01.473Z,9.54
2022-12-07T04:14:45.220Z,9.65
2022-12-07T04:17:28.988Z,9.44
2022-12-07T04:20:14.227Z,9.28
2022-12-07T04:22:57.941Z,9.30
2022-12-07T04:25:42.223Z,9.28
2022-12-07T04:28:27.807Z,9.20
2022-12-07T04:31:11.627Z,9.02
2022-12-07T04:33:55.593Z,8.99
2022-12-07T04:36:40.163Z,8.97
2022-12-07T04:39:27.102Z,8.96
2022-12-07T04:42:10.836Z,8.93
2022-12-07T04:44:55.940Z,8.87
2022-12-07T04:47:39.719Z,8.91
2022-12-07T04:50:23.453Z,8.69
2022-12-07T04:53:07.121Z,8.97
2022-12-07T04:55:51.292Z,8.76
2022-12-07T04:58:35.010Z,8.75
2022-12-07T05:01:20.613Z,8.61
2022-12-07T05:04:04.715Z,8.30
2022-12-07T05:06:48.512Z,8.36
2022-12-07T05:09:32.248Z,8.39
2022-12-07T05:12:16.019Z,7.96
2022-12-07T05:14:59.737Z,7.92
2022-12-07T05:17:44.977Z,7.95
2022-12-07T05:20:28.693Z,8.07
2022-12-07T05:23:12.849Z,7.16
2022-12-07T05:25:56.669Z,7.77
2022-12-07T05:28:40.544Z,7.78
2022-12-07T05:31:25.642Z,7.19
2022-12-07T05:34:10.940Z,7.05
2022-12-07T05:36:54.752Z,7.11
2022-12-07T05:39:38.918Z,7.30
2022-12-07T05:42:22.849Z,7.34
2022-12-07T05:45:08.185Z,7.19
2022-12-07T05:47:51.966Z,7.44
2022-12-07T05:50:37.133Z,7.24
2022-12-07T05:53:23.262Z,7.35
2022-12-07T05:56:08.168Z,7.58
2022-12-07T05:59:09.558Z,7.62
2022-12-07T06:01:54.576Z,7.59
2022-12-07T06:04:40.459Z,7.41
2022-12-07T06:07:25.758Z,7.46
2022-12-07T06:10:10.557Z,7.60
2022-12-07T06:12:53.423Z,7.56
2022-12-07T06:15:38.342Z,7.29
2022-12-07T06:18:22.313Z,7.37
2022-12-07T06:21:06.588Z,7.81
2022-12-07T06:23:52.083Z,7.65
2022-12-07T06:26:36.132Z,7.67
2022-12-07T06:29:20.775Z,7.76
2022-12-07T06:32:05.953Z,7.62
2022-12-07T06:34:49.992Z,8.04
2022-12-07T06:37:34.089Z,7.79
2022-12-07T06:40:19.528Z,8.16
2022-12-07T06:43:03.447Z,7.77
2022-12-07T06:45:47.430Z,8.14
2022-12-07T06:48:31.488Z,8.42
2022-12-07T06:51:15.533Z,8.34
2022-12-07T06:53:59.641Z,8.82
2022-12-07T06:56:45.133Z,8.99
2022-12-07T06:59:29.195Z,8.99
2022-12-07T07:02:13.153Z,8.84
2022-12-07T07:04:57.147Z,8.97
2022-12-07T07:07:58.093Z,9.46
2022-12-07T07:10:45.064Z,9.96
2022-12-07T07:13:30.562Z,10.02
2022-12-07T07:16:14.817Z,10.53
2022-12-07T07:18:58.918Z,10.75
2022-12-07T07:21:43.001Z,10.91
2022-12-07T07:24:27.344Z,10.51
2022-12-07T07:27:11.265Z,10.83
2022-12-07T07:29:56.638Z,10.45
2022-12-07T07:32:41.243Z,11.02
2022-12-07T07:35:25.305Z,11.06
2022-12-07T07:38:09.696Z,10.64
2022-12-07T07:40:53.609Z,10.88
2022-12-07T07:43:37.458Z,10.78
2022-12-07T07:46:23.082Z,10.97
2022-12-07T07:49:07.167Z,10.93
2022-12-07T07:51:51.096Z,11.03
2022-12-07T07:54:35.289Z,11.22
2022-12-07T07:57:19.794Z,11.30
2022-12-07T08:00:05.076Z,11.23
2022-12-07T08:02:58.782Z,11.10
2022-12-07T08:05:42.814Z,10.87
2022-12-07T08:08:26.988Z,10.95
2022-12-07T08:11:12.076Z,11.40
2022-12-07T08:13:56.123Z,11.54
2022-12-07T08:16:40.267Z,11.50
2022-12-07T08:19:25.961Z,12.14
2022-12-07T08:22:09.943Z,12.07
2022-12-07T08:24:53.874Z,11.74
2022-12-07T08:27:37.848Z,12.02
2022-12-07T08:30:22.957Z,12.22
2022-12-07T08:33:06.956Z,12.09
2022-12-07T08:35:52.538Z,12.81
2022-12-07T08:38:37.196Z,12.74
2022-12-07T08:41:21.201Z,12.80
2022-12-07T08:44:05.177Z,12.30
2022-12-07T08:46:51.974Z,12.87
2022-12-07T08:49:39.344Z,12.83
2022-12-07T08:52:25.087Z,12.46
2022-12-07T08:55:11.599Z,12.27
2022-12-07T08:57:55.843Z,12.60
2022-12-07T09:00:39.863Z,12.86
2022-12-07T09:03:23.762Z,12.11
2022-12-07T09:06:08.650Z,12.21
2022-12-07T09:08:57.369Z,12.75
2022-12-07T09:11:41.528Z,12.53
2022-12-07T09:14:25.880Z,12.46
2022-12-07T09:17:10.786Z,13.11
2022-12-07T09:19:54.706Z,13.02
2022-12-07T09:22:38.721Z,12.46
2022-12-07T09:25:24.318Z,12.29
2022-12-07T09:28:08.529Z,12.26
2022-12-07T09:31:21.996Z,12.37
2022-12-07T09:33:57.711Z,12.36
2022-12-07T09:36:41.792Z,12.67
2022-12-07T09:39:25.805Z,12.45
2022-12-07T09:42:20.574Z,12.54
2022-12-07T09:45:06.833Z,12.36
2022-12-07T09:47:50.767Z,12.69
2022-12-07T09:50:34.597Z,12.07
2022-12-07T09:53:23.153Z,12.61
2022-12-07T09:56:07.718Z,12.90
2022-12-07T09:58:56.850Z,13.25
2022-12-07T10:01:41.592Z,13.07
2022-12-07T10:04:27.908Z,12.83
2022-12-07T10:07:11.764Z,13.27
2022-12-07T10:09:55.575Z,13.51
2022-12-07T10:12:56.364Z,13.33
2022-12-07T10:15:47.454Z,13.58
2022-12-07T10:18:33.376Z,13.55
2022-12-07T10:21:21.748Z,14.15
2022-12-07T10:24:07.688Z,14.06
2022-12-07T10:26:53.915Z,14.06
2022-12-07T10:29:41.078Z,14.03
2022-12-07T10:32:35.094Z,14.04
2022-12-07T10:35:25.966Z,14.19
2022-12-07T10:38:19.058Z,14.16
2022-12-07T10:41:07.648Z,13.45
2022-12-07T10:43:54.287Z,13.54
2022-12-07T10:47:20.023Z,14.21
2022-12-07T10:50:35.222Z,13.74
2022-12-07T10:53:33.034Z,13.87
2022-12-07T10:56:37.265Z,14.31
2022-12-07T10:59:55.383Z,14.13
2022-12-07T11:02:52.551Z,14.13
2022-12-07T11:05:45.438Z,14.31
2022-12-07T11:08:45.069Z,14.03
2022-12-07T11:11:36.315Z,14.05
2022-12-07T11:14:27.375Z,14.00
2022-12-07T11:17:18.039Z,13.97
2022-12-07T11:20:15.034Z,14.25
2022-12-07T11:23:06.484Z,14.01
2022-12-07T11:25:56.996Z,14.16
2022-12-07T11:29:01.381Z,13.45
2022-12-07T11:32:00.786Z,13.77
2022-12-07T11:34:53.230Z,13.70
2022-12-07T11:40:30.288Z,13.72
2022-12-07T11:43:22.601Z,13.79
2022-12-07T11:46:13.223Z,14.12
2022-12-07T11:49:05.006Z,14.28
2022-12-07T11:51:52.929Z,13.93
2022-12-07T11:54:43.247Z,14.25
2022-12-07T11:57:32.967Z,14.13
2022-12-07T12:00:19.279Z,14.12
2022-12-07T12:03:11.791Z,14.12
2022-12-07T12:05:56.866Z,13.74
2022-12-07T12:15:37.271Z,13.25
2022-12-07T12:18:37.153Z,13.83
2022-12-07T12:21:24.950Z,13.67
2022-12-07T12:24:15.983Z,13.63
2022-12-07T12:27:06.270Z,13.53
2022-12-07T12:29:55.869Z,13.39
2022-12-07T12:32:44.009Z,13.45
2022-12-07T12:35:34.013Z,13.43
2022-12-07T12:38:34.489Z,13.46
2022-12-07T12:42:09.725Z,13.53
2022-12-07T12:45:21.601Z,13.56
2022-12-07T12:48:29.398Z,13.49
2022-12-07T12:51:39.404Z,13.38
2022-12-07T12:54:26.738Z,13.55
2022-12-07T12:57:17.082Z,13.49
2022-12-07T13:00:04.809Z,13.65
2022-12-07T13:02:54.668Z,13.07
2022-12-07T13:05:40.122Z,13.04
2022-12-07T13:08:31.899Z,13.06
2022-12-07T13:11:21.875Z,12.72
2022-12-07T13:14:45.429Z,13.35
2022-12-07T13:18:01.932Z,13.34
2022-12-07T13:20:51.254Z,13.34
2022-12-07T13:23:38.260Z,13.53
2022-12-07T13:26:25.010Z,13.39
2022-12-07T13:29:14.526Z,13.13
2022-12-07T13:32:00.071Z,13.08
2022-12-07T13:34:44.925Z,13.34
2022-12-07T13:37:38.613Z,13.31
2022-12-07T13:40:26.271Z,13.19
2022-12-07T13:43:17.690Z,13.30
2022-12-07T13:46:02.572Z,13.14
2022-12-07T13:48:49.976Z,13.28
2022-12-07T13:51:37.983Z,13.13
2022-12-07T13:54:24.337Z,13.27
2022-12-07T13:57:09.305Z,13.20
2022-12-07T13:59:53.728Z,13.36
2022-12-07T14:02:44.093Z,13.16
2022-12-07T14:05:31.651Z,12.91
2022-12-07T14:08:25.954Z,13.04
2022-12-07T14:11:19.842Z,12.90
2022-12-07T14:14:05.214Z,12.86
2022-12-07T14:17:00.653Z,12.85
2022-12-07T14:19:51.676Z,12.77
2022-12-07T14:22:37.748Z,12.57
2022-12-07T14:25:23.748Z,12.68
2022-12-07T14:28:27.404Z,12.67
2022-12-07T14:31:22.640Z,12.63
2022-12-07T14:34:13.706Z,12.55
2022-12-07T14:36:57.648Z,12.41
2022-12-07T14:39:41.554Z,12.14
2022-12-07T14:42:29.285Z,12.29
2022-12-07T14:45:18.834Z,12.02
2022-12-07T14:54:17.978Z,11.63
2022-12-07T14:57:01.757Z,11.49
2022-12-07T14:59:45.667Z,11.45
2022-12-07T15:02:31.084Z,11.24
2022-12-07T15:05:16.439Z,11.00
2022-12-07T15:08:00.929Z,11.53
2022-12-07T15:10:44.785Z,11.42
2022-12-07T15:13:45.723Z,11.39
2022-12-07T15:16:40.717Z,11.16
2022-12-07T15:19:34.911Z,11.37
2022-12-07T15:22:18.722Z,11.29
2022-12-07T15:25:03.084Z,11.31
2022-12-07T15:27:47.014Z,11.29
2022-12-07T15:30:30.800Z,11.23
2022-12-07T15:33:15.718Z,11.21
2022-12-07T15:36:01.811Z,11.20
2022-12-07T15:39:12.597Z,11.19
2022-12-07T15:41:49.359Z,11.20
2022-12-07T15:44:50.799Z,11.21
2022-12-07T15:47:54.973Z,11.07
2022-12-07T15:50:40.800Z,11.14
2022-12-07T15:53:26.137Z,11.02
2022-12-07T15:56:10.603Z,11.14
2022-12-07T15:58:54.641Z,11.15
2022-12-07T16:01:38.525Z,11.21
2022-12-07T16:04:22.364Z,11.26
2022-12-07T16:07:06.580Z,11.22
2022-12-07T16:09:51.735Z,11.05
2022-12-07T16:12:35.569Z,11.11
2022-12-07T16:15:24.241Z,11.08
2022-12-07T16:18:09.030Z,11.11
2022-12-07T16:20:53.206Z,11.24
2022-12-07T16:23:37.302Z,11.05
2022-12-07T16:26:24.488Z,11.27
2022-12-07T16:29:08.639Z,11.02
2022-12-07T16:31:53.655Z,11.45
2022-12-07T16:34:37.799Z,11.21
2022-12-07T16:37:21.785Z,11.42
2022-12-07T16:40:06.567Z,11.36
2022-12-07T16:42:52.112Z,11.43
2022-12-07T16:45:36.605Z,11.44
2022-12-07T16:48:21.181Z,11.32
2022-12-07T16:51:07.237Z,11.35
2022-12-07T16:53:51.177Z,11.06
2022-12-07T16:56:35.072Z,11.16
2022-12-07T16:59:20.516Z,11.16
2022-12-07T17:02:04.858Z,11.36
2022-12-07T17:04:48.837Z,11.17
2022-12-07T17:07:32.906Z,11.09
2022-12-07T17:10:16.864Z,11.09
2022-12-07T17:13:00.770Z,10.80
2022-12-07T17:15:48.542Z,10.76
2022-12-07T17:18:35.605Z,10.89
2022-12-07T17:21:19.579Z,10.65
2022-12-07T17:24:04.747Z,10.84
2022-12-07T17:26:49.209Z,10.64
2022-12-07T17:29:33.131Z,10.77
2022-12-07T17:32:18.536Z,10.62
2022-12-07T17:35:02.608Z,10.68
2022-12-07T17:37:50.872Z,10.47
2022-12-07T17:40:35.051Z,10.31
2022-12-07T17:43:18.798Z,10.46
2022-12-07T17:46:08.511Z,10.63
2022-12-07T17:48:55.797Z,10.47
2022-12-07T17:51:56.983Z,10.59
2022-12-07T17:54:40.678Z,10.73
2022-12-07T17:57:24.815Z,10.75
2022-12-07T18:00:09.933Z,10.59
2022-12-07T18:02:57.166Z,10.47
2022-12-07T18:05:45.367Z,10.56
2022-12-07T18:08:29.210Z,10.44
2022-12-07T18:11:13.223Z,10.59
2022-12-07T18:13:56.986Z,10.60
2022-12-07T18:16:40.934Z,10.60
2022-12-07T18:19:24.813Z,10.49
2022-12-07T18:22:10.288Z,10.67
2022-12-07T18:24:55.263Z,10.78
2022-12-07T18:27:41.004Z,10.81
2022-12-07T18:30:49.501Z,10.91
2022-12-07T18:33:28.618Z,10.70
2022-12-07T18:36:13.150Z,10.72
2022-12-07T18:38:58.333Z,10.83
2022-12-07T18:41:43.459Z,10.76
2022-12-07T18:44:27.201Z,10.84
2022-12-07T18:47:11.027Z,10.95
2022-12-07T18:49:54.764Z,11.02
2022-12-07T18:52:38.855Z,10.91
2022-12-07T18:55:25.915Z,11.24
2022-12-07T18:58:09.833Z,11.07
2022-12-07T19:00:54.495Z,11.34
2022-12-07T19:03:39.904Z,11.37
2022-12-07T19:06:24.060Z,11.34
2022-12-07T19:09:08.094Z,11.01
2022-12-07T19:11:53.539Z,11.29
2022-12-07T19:14:39.692Z,11.20
2022-12-07T19:17:24.016Z,11.04
2022-12-07T19:20:10.669Z,10.97
2022-12-07T19:22:54.663Z,10.83
2022-12-07T19:25:38.725Z,10.44
2022-12-07T19:28:24.156Z,10.53
2022-12-07T19:31:08.482Z,10.56
2022-12-07T19:33:52.845Z,10.45
2022-12-07T19:36:37.265Z,10.11
2022-12-07T19:39:21.176Z,9.94
2022-12-07T19:42:05.678Z,9.82
2022-12-07T19:44:51.140Z,9.84
2022-12-07T19:47:35.056Z,10.01
2022-12-07T19:50:19.239Z,9.90
2022-12-07T19:53:03.313Z,9.80
2022-12-07T19:55:47.986Z,9.59
2022-12-07T19:58:31.661Z,9.43
2022-12-07T20:01:17.211Z,9.46
2022-12-07T20:04:01.542Z,9.41
2022-12-07T20:06:45.623Z,9.43
2022-12-07T20:09:30.059Z,9.48
2022-12-07T20:12:31.698Z,9.41
2022-12-07T20:15:15.701Z,9.37
2022-12-07T20:18:00.876Z,9.41
2022-12-07T20:20:54.476Z,9.45
2022-12-07T20:23:38.606Z,9.42
2022-12-07T20:26:22.538Z,9.38
2022-12-07T20:29:10.931Z,9.11
2022-12-07T20:31:58.143Z,9.29
2022-12-07T20:34:46.899Z,9.09
2022-12-07T20:37:30.788Z,9.26
2022-12-07T20:40:14.836Z,9.30
2022-12-07T20:42:58.788Z,9.30
2022-12-07T20:45:46.198Z,9.34
2022-12-07T20:48:30.063Z,9.25
2022-12-07T20:51:15.263Z,9.12
2022-12-07T20:53:59.382Z,9.34
2022-12-07T20:56:44.047Z,9.37
2022-12-07T20:59:27.836Z,9.45
2022-12-07T21:02:13.265Z,9.53
2022-12-07T21:04:57.301Z,9.66
2022-12-07T21:07:42.643Z,9.79
2022-12-07T21:10:26.621Z,9.86
2022-12-07T21:13:10.708Z,9.66
2022-12-07T21:15:55.649Z,9.93
2022-12-07T21:18:40.732Z,9.84
2022-12-07T21:21:25.255Z,9.57
2022-12-07T21:24:12.499Z,9.43
2022-12-07T21:26:56.561Z,9.44
2022-12-07T21:29:44.245Z,9.28
2022-12-07T21:32:29.098Z,9.32
2022-12-07T21:35:13.301Z,9.25
2022-12-07T21:37:57.251Z,9.26
2022-12-07T21:40:42.726Z,9.39
2022-12-07T21:43:27.123Z,8.87
2022-12-07T21:46:11.384Z,8.85
2022-12-07T21:48:57.489Z,8.85
2022-12-07T21:51:44.573Z,8.89
2022-12-07T21:54:30.455Z,8.98
2022-12-07T21:57:16.133Z,8.58
2022-12-07T22:00:00.463Z,8.49
2022-12-07T22:02:44.501Z,8.52
2022-12-07T22:05:28.585Z,8.16
2022-12-07T22:08:12.775Z,8.00
2022-12-07T22:11:03.291Z,7.95
2022-12-07T22:14:10.204Z,8.11
2022-12-07T22:16:55.316Z,8.19
2022-12-07T22:19:39.325Z,8.44
2022-12-07T22:22:23.387Z,8.14
2022-12-07T22:25:09.029Z,7.86
2022-12-07T22:27:53.027Z,8.14
2022-12-07T22:30:40.610Z,8.04
2022-12-07T22:33:24.646Z,8.36
2022-12-07T22:36:10.621Z,7.88
2022-12-07T22:38:54.557Z,7.88
2022-12-07T22:41:40.203Z,8.09
2022-12-07T22:44:24.365Z,7.23
2022-12-07T22:47:09.827Z,7.65
2022-12-07T22:49:53.763Z,7.80
2022-12-07T22:52:37.745Z,7.70
2022-12-07T22:55:21.899Z,7.98
2022-12-07T22:58:05.884Z,7.80
2022-12-07T23:00:49.999Z,8.05
2022-12-07T23:03:35.638Z,7.83
2022-12-07T23:06:22.054Z,7.94
2022-12-07T23:09:08.462Z,8.22
2022-12-07T23:12:09.916Z,8.16
2022-12-07T23:14:54.928Z,7.90
2022-12-07T23:17:39.247Z,7.81
2022-12-07T23:20:25.031Z,7.86
2022-12-07T23:23:09.184Z,8.13
2022-12-07T23:25:53.788Z,7.88
2022-12-07T23:28:38.552Z,8.01
2022-12-07T23:31:23.546Z,7.46
2022-12-07T23:34:07.802Z,7.87
2022-12-07T23:36:53.668Z,7.73
2022-12-07T23:39:37.800Z,7.82
2022-12-07T23:42:21.775Z,7.67
2022-12-07T23:45:06.502Z,7.32
2022-12-07T23:47:50.960Z,7.82
2022-12-07T23:50:36.694Z,7.47
2022-12-07T23:53:22.032Z,7.68
2022-12-07T23:56:06.483Z,7.35
2022-12-07T23:58:52.146Z,7.40
